createdAt,value
2019-01-21T00:02:10.731Z,98436.50
2019-01-21T00:04:41.720Z,98434.23
2019-01-21T00:07:12.832Z,98434.62
2019-01-21T00:09:43.576Z,98438.13
2019-01-21T00:12:14.398Z,98439.02
2019-01-21T00:14:45.073Z,98436.88
2019-01-21T00:17:22.244Z,98439.77
2019-01-21T00:19:48.767Z,98437.67
2019-01-21T00:22:20.239Z,98437.69
2019-01-21T00:24:50.847Z,98440.04
2019-01-21T00:27:21.648Z,98450.32
2019-01-21T00:29:52.468Z,98449.39
2019-01-21T00:32:23.050Z,98453.69
2019-01-21T00:34:53.603Z,98452.81
2019-01-21T00:37:24.454Z,98455.31
2019-01-21T00:39:55.035Z,98454.37
2019-01-21T00:42:25.673Z,98459.89
2019-01-21T00:44:56.595Z,98459.77
2019-01-21T00:47:30.002Z,98460.92
2019-01-21T00:49:59.744Z,98461.89
2019-01-21T00:52:30.579Z,98463.73
2019-01-21T00:55:01.128Z,98459.11
2019-01-21T00:57:31.661Z,98463.25
2019-01-21T01:00:05.224Z,98467.77
2019-01-21T01:02:35.733Z,98475.44
2019-01-21T01:05:08.836Z,98476.21
2019-01-21T01:07:40.542Z,98478.95
2019-01-21T01:10:12.720Z,98480.61
2019-01-21T01:12:43.266Z,98478.22
2019-01-21T01:15:14.630Z,98479.33
2019-01-21T01:17:45.184Z,98477.88
2019-01-21T01:20:21.526Z,98480.45
2019-01-21T01:22:52.157Z,98487.17
2019-01-21T01:25:22.691Z,98484.63
2019-01-21T01:27:53.223Z,98486.47
2019-01-21T01:30:23.826Z,98484.19
2019-01-21T01:32:54.655Z,98486.77
2019-01-21T01:35:25.261Z,98494.02
2019-01-21T01:37:55.982Z,98489.59
2019-01-21T01:40:26.627Z,98490.70
2019-01-21T01:42:57.169Z,98484.41
2019-01-21T01:45:28.934Z,98487.94
2019-01-21T01:48:07.049Z,98492.02
2019-01-21T01:50:37.827Z,98494.61
2019-01-21T01:53:08.765Z,98492.52
2019-01-21T01:55:39.269Z,98495.14
2019-01-21T01:58:10.591Z,98493.67
2019-01-21T02:00:41.135Z,98500.89
2019-01-21T02:03:11.935Z,98490.91
2019-01-21T02:05:42.711Z,98491.55
2019-01-21T02:08:13.950Z,98500.64
2019-01-21T02:10:44.777Z,98495.57
2019-01-21T02:13:15.606Z,98494.73
2019-01-21T02:15:46.167Z,98499.41
2019-01-21T02:18:17.020Z,98496.70
2019-01-21T02:20:51.294Z,98493.19
2019-01-21T02:23:26.334Z,98494.47
2019-01-21T02:26:05.045Z,98491.32
2019-01-21T02:29:30.216Z,98496.37
2019-01-21T02:33:19.736Z,98490.73
2019-01-21T02:36:36.378Z,98494.96
2019-01-21T02:39:50.836Z,98491.00
2019-01-21T02:43:00.235Z,98490.54
2019-01-21T02:46:29.723Z,98489.61
2019-01-21T02:49:52.838Z,98483.52
2019-01-21T02:53:09.682Z,98484.52
2019-01-21T02:56:47.202Z,98487.13
2019-01-21T03:00:10.100Z,98486.58
2019-01-21T03:03:18.311Z,98487.20
2019-01-21T03:06:31.211Z,98481.23
2019-01-21T03:10:13.348Z,98481.61
2019-01-21T03:13:27.062Z,98479.50
2019-01-21T03:16:41.275Z,98478.55
2019-01-21T03:20:14.219Z,98473.38
2019-01-21T03:23:42.622Z,98473.80
2019-01-21T03:27:27.158Z,98480.59
2019-01-21T03:31:22.851Z,98477.84
2019-01-21T03:34:39.293Z,98480.17
2019-01-21T03:38:06.068Z,98476.70
2019-01-21T03:41:31.889Z,98476.46
2019-01-21T03:44:33.113Z,98480.68
2019-01-21T03:47:31.808Z,98480.68
2019-01-21T03:50:48.678Z,98486.59
2019-01-21T03:53:46.811Z,98484.03
2019-01-21T03:56:52.067Z,98484.05
2019-01-21T03:59:48.218Z,98479.78
2019-01-21T04:03:19.138Z,98479.45
2019-01-21T04:06:25.572Z,98477.64
2019-01-21T04:09:54.306Z,98476.48
2019-01-21T04:13:15.909Z,98478.38
2019-01-21T04:16:35.504Z,98474.48
2019-01-21T04:19:56.087Z,98474.27
2019-01-21T04:23:18.790Z,98478.39
2019-01-21T04:26:46.335Z,98478.41
2019-01-21T04:30:15.628Z,98475.94
2019-01-21T04:33:36.923Z,98474.27
2019-01-21T04:37:13.062Z,98481.02
2019-01-21T04:40:31.103Z,98480.09
2019-01-21T04:44:12.244Z,98477.90
2019-01-21T04:47:43.848Z,98477.47
2019-01-21T04:51:16.587Z,98475.91
2019-01-21T04:54:30.446Z,98479.45
2019-01-21T04:58:05.103Z,98480.50
2019-01-21T05:01:35.545Z,98478.80
2019-01-21T05:04:55.102Z,98478.77
2019-01-21T05:08:20.068Z,98480.17
2019-01-21T05:12:09.453Z,98478.41
2019-01-21T05:15:27.741Z,98477.06
2019-01-21T05:19:06.406Z,98486.34
2019-01-21T05:22:28.654Z,98484.31
2019-01-21T05:25:54.059Z,98484.84
2019-01-21T05:29:24.532Z,98480.34
2019-01-21T05:32:38.363Z,98483.27
2019-01-21T05:36:30.821Z,98487.78
2019-01-21T05:39:48.345Z,98493.61
2019-01-21T05:43:16.730Z,98493.10
2019-01-21T05:46:31.903Z,98497.14
2019-01-21T05:50:00.340Z,98499.87
2019-01-21T05:53:16.500Z,98499.16
2019-01-21T05:57:18.204Z,98504.91
2019-01-21T06:01:25.419Z,98503.10
2019-01-21T06:04:45.586Z,98501.73
2019-01-21T06:08:07.294Z,98509.40
2019-01-21T06:11:02.007Z,98504.78
2019-01-21T06:14:33.380Z,98504.91
2019-01-21T06:18:12.602Z,98509.16
2019-01-21T06:21:26.457Z,98510.17
2019-01-21T06:24:28.485Z,98512.41
2019-01-21T06:27:36.566Z,98518.83
2019-01-21T06:31:10.564Z,98520.56
2019-01-21T06:34:35.252Z,98528.19
2019-01-21T06:37:50.218Z,98531.61
2019-01-21T06:41:37.983Z,98528.63
2019-01-21T06:45:11.949Z,98535.38
2019-01-21T06:48:35.946Z,98537.45
2019-01-21T06:51:53.567Z,98542.22
2019-01-21T06:55:24.179Z,98541.50
2019-01-21T06:58:52.217Z,98547.77
2019-01-21T07:02:56.254Z,98548.84
2019-01-21T07:06:40.652Z,98555.77
2019-01-21T07:10:05.323Z,98553.12
2019-01-21T07:13:27.035Z,98568.89
2019-01-21T07:16:39.512Z,98581.15
2019-01-21T07:19:40.576Z,98584.81
2019-01-21T07:23:19.516Z,98586.45
2019-01-21T07:26:59.168Z,98587.46
2019-01-21T07:30:14.458Z,98583.11
2019-01-21T07:33:31.259Z,98589.02
2019-01-21T07:36:39.429Z,98587.41
2019-01-21T07:39:56.130Z,98586.52
2019-01-21T07:43:28.740Z,98591.80
2019-01-21T07:46:41.777Z,98595.61
2019-01-21T07:50:12.990Z,98594.81
2019-01-21T07:53:42.618Z,98590.30
2019-01-21T07:57:27.562Z,98596.08
2019-01-21T08:00:50.433Z,98602.91
2019-01-21T08:04:32.888Z,98597.75
2019-01-21T08:07:34.319Z,98608.52
2019-01-21T08:10:58.861Z,98608.63
2019-01-21T08:14:32.986Z,98605.29
2019-01-21T08:18:16.867Z,98605.66
2019-01-21T08:21:29.510Z,98603.14
2019-01-21T08:24:50.139Z,98597.39
2019-01-21T08:28:24.644Z,98598.59
2019-01-21T08:31:40.683Z,98598.56
2019-01-21T08:34:57.024Z,98602.25
2019-01-21T08:38:30.261Z,98602.98
2019-01-21T08:41:40.937Z,98599.28
2019-01-21T08:45:04.185Z,98595.44
2019-01-21T08:48:39.057Z,98593.31
2019-01-21T08:51:43.563Z,98596.91
2019-01-21T08:54:44.227Z,98601.99
2019-01-21T08:57:48.565Z,98602.26
2019-01-21T09:01:05.530Z,98598.45
2019-01-21T09:04:45.217Z,98601.09
2019-01-21T09:08:14.920Z,98599.02
2019-01-21T09:11:51.829Z,98593.31
2019-01-21T09:15:16.099Z,98592.48
2019-01-21T09:18:17.038Z,98598.03
2019-01-21T09:21:34.800Z,98597.94
2019-01-21T09:25:26.284Z,98604.44
2019-01-21T09:28:49.132Z,98605.39
2019-01-21T09:32:04.555Z,98608.33
2019-01-21T09:35:25.743Z,98606.90
2019-01-21T09:38:50.985Z,98613.25
2019-01-21T09:42:24.435Z,98615.51
2019-01-21T09:46:00.251Z,98615.60
2019-01-21T09:48:28.398Z,98615.12
2019-01-21T09:51:07.879Z,98611.92
2019-01-21T09:53:39.597Z,98617.80
2019-01-21T09:56:10.264Z,98620.38
2019-01-21T09:58:42.049Z,98618.02
2019-01-21T10:01:12.985Z,98621.67
2019-01-21T10:03:45.590Z,98616.38
2019-01-21T10:06:20.123Z,98615.23
2019-01-21T10:09:33.125Z,98618.20
2019-01-21T10:13:03.484Z,98616.48
2019-01-21T10:15:56.734Z,98606.27
2019-01-21T10:19:50.795Z,98607.33
2019-01-21T10:22:53.054Z,98607.58
2019-01-21T10:26:14.421Z,98607.42
2019-01-21T10:29:44.715Z,98607.41
2019-01-21T10:33:15.380Z,98615.47
2019-01-21T10:36:23.723Z,98611.01
2019-01-21T10:39:50.585Z,98604.22
2019-01-21T10:43:18.052Z,98605.01
2019-01-21T10:46:48.887Z,98600.65
2019-01-21T10:49:48.155Z,98596.24
2019-01-21T10:53:26.940Z,98588.88
2019-01-21T10:57:05.547Z,98590.08
2019-01-21T11:00:51.474Z,98590.91
2019-01-21T11:04:24.367Z,98579.39
2019-01-21T11:08:08.498Z,98580.66
2019-01-21T11:11:54.072Z,98585.45
2019-01-21T11:15:08.806Z,98581.40
2019-01-21T11:18:57.894Z,98577.23
2019-01-21T11:22:02.081Z,98578.86
2019-01-21T11:25:31.530Z,98579.36
2019-01-21T11:28:43.367Z,98583.92
2019-01-21T11:32:12.053Z,98578.02
2019-01-21T11:35:09.883Z,98573.19
2019-01-21T11:38:30.314Z,98574.51
2019-01-21T11:41:23.467Z,98570.69
2019-01-21T11:44:50.540Z,98564.84
2019-01-21T11:47:35.041Z,98568.37
2019-01-21T11:51:03.133Z,98567.23
2019-01-21T11:54:27.696Z,98563.48
2019-01-21T11:57:43.300Z,98569.09
2019-01-21T12:00:49.801Z,98568.69
2019-01-21T12:03:56.037Z,98565.95
2019-01-21T12:07:21.224Z,98560.00
2019-01-21T12:11:11.781Z,98554.92
2019-01-21T12:14:28.284Z,98555.40
2019-01-21T12:18:00.058Z,98554.13
2019-01-21T12:21:39.733Z,98552.42
2019-01-21T12:25:15.294Z,98551.13
2019-01-21T12:28:57.985Z,98547.37
2019-01-21T12:32:05.479Z,98546.22
2019-01-21T12:35:34.565Z,98544.77
2019-01-21T12:39:05.659Z,98541.90
2019-01-21T12:43:09.305Z,98538.15
2019-01-21T12:46:44.243Z,98540.14
2019-01-21T12:50:32.591Z,98537.58
2019-01-21T12:53:49.449Z,98533.20
2019-01-21T12:57:17.340Z,98529.53
2019-01-21T13:00:29.449Z,98524.64
2019-01-21T13:03:55.293Z,98533.20
2019-01-21T13:07:04.455Z,98522.77
2019-01-21T13:10:31.697Z,98522.69
2019-01-21T13:13:36.433Z,98514.15
2019-01-21T13:16:54.359Z,98514.00
2019-01-21T13:20:10.700Z,98505.25
2019-01-21T13:23:26.437Z,98501.80
2019-01-21T13:26:43.663Z,98492.72
2019-01-21T13:30:28.348Z,98484.02
2019-01-21T13:41:01.133Z,98495.69
2019-01-21T13:44:40.257Z,98491.59
2019-01-21T13:48:12.075Z,98493.59
2019-01-21T13:51:27.475Z,98496.19
2019-01-21T13:54:55.252Z,98494.02
2019-01-21T13:58:40.157Z,98497.80
2019-01-21T14:01:39.381Z,98499.80
2019-01-21T14:04:58.490Z,98493.78
2019-01-21T14:08:10.441Z,98492.83
2019-01-21T14:11:37.958Z,98487.64
2019-01-21T14:14:51.113Z,98490.75
2019-01-21T14:18:16.866Z,98489.86
2019-01-21T14:22:03.714Z,98485.74
2019-01-21T14:25:55.020Z,98483.79
2019-01-21T14:29:04.063Z,98483.27
2019-01-21T14:32:12.893Z,98488.70
2019-01-21T14:35:11.205Z,98477.13
2019-01-21T14:38:59.775Z,98474.88
2019-01-21T14:42:17.131Z,98468.36
2019-01-21T14:45:42.132Z,98457.96
2019-01-21T14:49:10.849Z,98456.28
2019-01-21T14:52:49.391Z,98453.66
2019-01-21T14:55:45.406Z,98449.46
2019-01-21T14:58:54.431Z,98445.53
2019-01-21T15:02:22.060Z,98446.20
2019-01-21T15:05:47.286Z,98448.28
2019-01-21T15:08:49.343Z,98448.95
2019-01-21T15:12:35.514Z,98451.31
2019-01-21T15:15:47.170Z,98451.41
2019-01-21T15:18:50.290Z,98444.44
2019-01-21T15:22:31.615Z,98442.47
2019-01-21T15:26:12.637Z,98453.25
2019-01-21T15:29:36.406Z,98457.10
2019-01-21T15:33:03.039Z,98449.72
2019-01-21T15:36:17.252Z,98454.83
2019-01-21T15:39:31.882Z,98460.48
2019-01-21T15:42:34.322Z,98465.02
2019-01-21T15:45:43.608Z,98462.14
2019-01-21T15:49:09.635Z,98464.36
2019-01-21T15:52:37.174Z,98454.16
2019-01-21T15:55:31.263Z,98463.27
2019-01-21T15:58:51.120Z,98460.17
2019-01-21T16:01:53.926Z,98461.27
2019-01-21T16:05:01.767Z,98463.89
2019-01-21T16:08:20.502Z,98464.30
2019-01-21T16:11:19.541Z,98459.84
2019-01-21T16:13:59.696Z,98455.72
2019-01-21T16:17:18.507Z,98453.17
2019-01-21T16:20:08.426Z,98465.84
2019-01-21T16:23:19.647Z,98465.30
2019-01-21T16:26:20.715Z,98461.23
2019-01-21T16:30:06.025Z,98467.52
2019-01-21T16:33:27.579Z,98462.28
2019-01-21T16:36:36.733Z,98460.33
2019-01-21T16:40:11.181Z,98466.19
2019-01-21T16:42:42.027Z,98465.36
2019-01-21T16:45:12.884Z,98469.03
2019-01-21T16:47:43.522Z,98469.44
2019-01-21T16:50:14.809Z,98463.25
2019-01-21T16:52:45.687Z,98449.56
2019-01-21T16:55:16.545Z,98443.56
2019-01-21T16:57:47.486Z,98442.19
2019-01-21T17:00:19.213Z,98442.21
2019-01-21T17:02:52.217Z,98449.81
2019-01-21T17:05:23.230Z,98450.61
2019-01-21T17:07:53.809Z,98439.42
2019-01-21T17:13:00.767Z,98449.31
2019-01-21T17:15:31.702Z,98442.33
2019-01-21T17:18:02.467Z,98442.05
2019-01-21T17:20:34.070Z,98435.70
2019-01-21T17:23:05.953Z,98439.88
2019-01-21T17:25:36.763Z,98435.67
2019-01-21T17:28:07.756Z,98443.16
2019-01-21T17:30:38.662Z,98444.05
2019-01-21T17:33:09.570Z,98432.55
2019-01-21T17:35:40.399Z,98433.58
2019-01-21T17:38:11.062Z,98436.09
2019-01-21T17:40:41.605Z,98433.48
2019-01-21T17:43:12.217Z,98435.09
2019-01-21T17:45:44.695Z,98433.13
2019-01-21T17:48:15.539Z,98428.70
2019-01-21T17:50:46.235Z,98433.59
2019-01-21T17:53:16.799Z,98433.14
2019-01-21T17:55:47.566Z,98430.78
2019-01-21T17:58:19.042Z,98437.05
2019-01-21T18:00:49.821Z,98435.95
2019-01-21T18:03:20.655Z,98433.42
2019-01-21T18:05:51.663Z,98432.39
2019-01-21T18:08:22.682Z,98436.91
2019-01-21T18:10:53.607Z,98446.41
2019-01-21T18:13:24.191Z,98446.87
2019-01-21T18:15:54.758Z,98446.87
2019-01-21T18:18:25.295Z,98439.65
2019-01-21T18:20:55.930Z,98434.05
2019-01-21T18:23:26.569Z,98438.29
2019-01-21T18:25:57.109Z,98438.30
2019-01-21T18:28:27.715Z,98442.45
2019-01-21T18:30:58.338Z,98444.59
2019-01-21T18:33:28.935Z,98441.31
2019-01-21T18:35:59.616Z,98443.07
2019-01-21T18:38:30.241Z,98451.73
2019-01-21T18:41:00.831Z,98446.06
2019-01-21T18:43:31.715Z,98450.44
2019-01-21T18:46:02.308Z,98454.13
2019-01-21T18:48:32.827Z,98453.57
2019-01-21T18:51:03.525Z,98451.25
2019-01-21T18:53:34.110Z,98442.16
2019-01-21T18:56:06.349Z,98442.30
2019-01-21T18:58:36.948Z,98442.73
2019-01-21T19:01:07.991Z,98443.05
2019-01-21T19:03:38.916Z,98446.45
2019-01-21T19:06:09.768Z,98442.97
2019-01-21T19:08:40.702Z,98440.58
2019-01-21T19:11:11.249Z,98437.66
2019-01-21T19:13:41.862Z,98433.90
2019-01-21T19:16:12.458Z,98436.16
2019-01-21T19:18:43.038Z,98437.33
2019-01-21T19:21:13.936Z,98434.73
2019-01-21T19:23:44.790Z,98436.30
2019-01-21T19:26:19.445Z,98436.54
2019-01-21T19:28:50.016Z,98435.09
2019-01-21T19:31:21.077Z,98432.22
2019-01-21T19:33:51.885Z,98432.39
2019-01-21T19:36:22.736Z,98430.60
2019-01-21T19:38:53.375Z,98424.69
2019-01-21T19:41:24.045Z,98417.56
2019-01-21T19:43:54.839Z,98412.12
2019-01-21T19:46:25.701Z,98413.64
2019-01-21T19:48:56.318Z,98412.23
2019-01-21T19:51:27.052Z,98414.92
2019-01-21T19:53:57.923Z,98414.73
2019-01-21T19:56:28.853Z,98416.08
2019-01-21T19:58:59.660Z,98419.37
2019-01-21T20:01:30.254Z,98422.35
2019-01-21T20:04:00.993Z,98420.22
2019-01-21T20:06:31.899Z,98416.66
2019-01-21T20:09:02.913Z,98408.98
2019-01-21T20:11:34.883Z,98410.53
2019-01-21T20:14:06.470Z,98413.88
2019-01-21T20:16:37.206Z,98413.97
2019-01-21T20:19:08.233Z,98410.94
2019-01-21T20:21:39.103Z,98418.71
2019-01-21T20:24:10.032Z,98410.27
2019-01-21T20:26:40.870Z,98413.11
2019-01-21T20:29:11.550Z,98415.37
2019-01-21T20:31:42.257Z,98411.12
2019-01-21T20:34:13.502Z,98415.84
2019-01-21T20:36:44.149Z,98416.07
2019-01-21T20:39:15.106Z,98419.28
2019-01-21T20:41:45.937Z,98418.18
2019-01-21T20:44:16.860Z,98425.18
2019-01-21T20:46:47.506Z,98417.31
2019-01-21T20:49:18.202Z,98417.32
2019-01-21T20:51:49.141Z,98425.39
2019-01-21T20:54:20.096Z,98434.11
2019-01-21T20:56:50.951Z,98425.84
2019-01-21T20:59:21.839Z,98426.59
2019-01-21T21:01:52.588Z,98423.63
2019-01-21T21:04:23.185Z,98423.45
2019-01-21T21:06:54.061Z,98415.92
2019-01-21T21:09:24.656Z,98415.92
2019-01-21T21:11:55.208Z,98413.91
2019-01-21T21:14:25.803Z,98416.56
2019-01-21T21:16:56.459Z,98420.28
2019-01-21T21:19:26.913Z,98414.13
2019-01-21T21:21:57.376Z,98409.42
2019-01-21T21:24:28.006Z,98403.28
2019-01-21T21:26:59.215Z,98397.81
2019-01-21T21:29:29.910Z,98395.96
2019-01-21T21:32:00.823Z,98399.06
2019-01-21T21:34:31.323Z,98403.06
2019-01-21T21:37:02.062Z,98405.98
2019-01-21T21:39:32.615Z,98406.56
2019-01-21T21:42:03.089Z,98409.10
2019-01-21T21:44:34.398Z,98406.17
2019-01-21T21:47:06.201Z,98404.45
2019-01-21T21:49:36.913Z,98397.11
2019-01-21T21:52:07.682Z,98395.62
2019-01-21T21:54:38.102Z,98390.58
2019-01-21T21:57:08.899Z,98395.92
2019-01-21T21:59:39.389Z,98394.02
2019-01-21T22:02:09.921Z,98396.19
2019-01-21T22:04:40.412Z,98390.92
2019-01-21T22:07:11.504Z,98385.78
2019-01-21T22:09:42.210Z,98380.61
2019-01-21T22:12:12.990Z,98383.11
2019-01-21T22:14:43.593Z,98369.33
2019-01-21T22:17:14.102Z,98379.07
2019-01-21T22:19:44.968Z,98379.11
2019-01-21T22:22:15.535Z,98380.05
2019-01-21T22:24:46.241Z,98381.16
2019-01-21T22:27:17.141Z,98377.95
2019-01-21T22:29:48.119Z,98374.48
2019-01-21T22:32:19.005Z,98374.52
2019-01-21T22:34:49.628Z,98371.94
2019-01-21T22:37:20.302Z,98375.88
2019-01-21T22:39:51.248Z,98374.12
2019-01-21T22:42:22.287Z,98365.13
2019-01-21T22:44:53.068Z,98365.21
2019-01-21T22:47:23.607Z,98359.13
2019-01-21T22:49:54.143Z,98356.31
2019-01-21T22:52:25.019Z,98357.91
2019-01-21T22:54:55.559Z,98354.34
2019-01-21T22:57:26.240Z,98348.20
2019-01-21T22:59:57.144Z,98345.95
2019-01-21T23:02:28.012Z,98344.21
2019-01-21T23:04:59.110Z,98341.28
2019-01-21T23:07:29.923Z,98337.84
2019-01-21T23:10:00.555Z,98336.20
2019-01-21T23:12:31.198Z,98338.31
2019-01-21T23:15:02.045Z,98332.14
2019-01-21T23:17:32.554Z,98330.52
2019-01-21T23:20:03.336Z,98330.64
2019-01-21T23:22:34.121Z,98325.03
2019-01-21T23:25:06.384Z,98332.80
2019-01-21T23:27:37.179Z,98335.62
2019-01-21T23:30:11.321Z,98333.20
2019-01-21T23:32:42.104Z,98330.55
2019-01-21T23:35:12.708Z,98325.17
2019-01-21T23:37:43.305Z,98322.31
2019-01-21T23:40:14.789Z,98322.89
2019-01-21T23:42:45.336Z,98320.39
2019-01-21T23:45:16.142Z,98319.17
2019-01-21T23:47:46.710Z,98315.56
2019-01-21T23:50:17.722Z,98311.71
2019-01-21T23:52:48.320Z,98304.98
2019-01-21T23:55:18.886Z,98302.84
2019-01-21T23:57:49.381Z,98305.11
